Time,TemperatureF,DewpointF,PressureIn,WindDirection,WindDirectionDegrees,WindSpeedMPH,WindSpeedGustMPH,Humidity,HourlyPrecipIn,Conditions,Clouds,dailyrainin,SoftwareType,DateUTC
2013-03-08 00:00:00,44.1,37.3,30.10,North,-999,0.0,0.0,77,0.00,,,-99.99,WeatherLink 5.7,2013-03-08 05:00:00,
2013-03-08 00:15:00,43.9,37.5,30.10,North,-999,0.0,0.0,78,0.00,,,-99.99,WeatherLink 5.7,2013-03-08 05:15:00,
2013-03-08 00:30:00,43.7,37.0,30.10,North,-999,0.0,0.0,77,0.00,,,-99.99,WeatherLink 5.7,2013-03-08 05:30:00,
2013-03-08 00:45:00,43.4,37.0,30.10,North,-999,0.0,0.0,78,0.00,,,-99.99,WeatherLink 5.7,2013-03-08 05:45:00,
2013-03-08 01:00:00,43.0,36.6,30.09,North,-999,0.0,0.0,78,0.00,,,-99.99,WeatherLink 5.7,2013-03-08 06:00:00,
2013-03-08 01:15:00,42.6,36.5,30.09,North,-999,0.0,0.0,79,0.00,,,-99.99,WeatherLink 5.7,2013-03-08 06:15:00,
2013-03-08 01:30:00,42.4,36.3,30.09,North,-999,0.0,0.0,79,0.00,,,-99.99,WeatherLink 5.7,2013-03-08 06:30:00,
2013-03-08 01:45:00,42.1,36.1,30.09,North,-999,0.0,0.0,79,0.00,,,-99.99,WeatherLink 5.7,2013-03-08 06:45:00,
2013-03-08 02:00:00,41.8,35.8,30.08,North,-999,0.0,0.0,79,0.00,,,-99.99,WeatherLink 5.7,2013-03-08 07:00:00,
2013-03-08 02:15:00,41.6,35.9,30.08,North,-999,0.0,0.0,80,0.00,,,-99.99,WeatherLink 5.7,2013-03-08 07:15:00,
2013-03-08 02:30:00,41.6,35.9,30.07,North,-999,0.0,0.0,80,0.00,,,-99.99,WeatherLink 5.7,2013-03-08 07:30:00,
2013-03-08 02:45:00,41.5,35.8,30.07,North,-999,0.0,0.0,80,0.00,,,-99.99,WeatherLink 5.7,2013-03-08 07:45:00,
2013-03-08 03:00:00,41.4,36.0,30.07,North,-999,0.0,0.0,81,0.00,,,-99.99,WeatherLink 5.7,2013-03-08 08:00:00,
2013-03-08 03:15:00,41.5,36.1,30.07,North,-999,0.0,0.0,81,0.00,,,-99.99,WeatherLink 5.7,2013-03-08 08:15:00,
2013-03-08 03:30:00,41.5,36.4,30.07,North,-999,0.0,0.0,82,0.00,,,-99.99,WeatherLink 5.7,2013-03-08 08:30:00,
2013-03-08 03:45:00,41.6,36.5,30.07,North,-999,0.0,0.0,82,0.00,,,-99.99,WeatherLink 5.7,2013-03-08 08:45:00,
2013-03-08 04:00:00,41.8,36.7,30.07,North,-999,0.0,0.0,82,0.00,,,-99.99,WeatherLink 5.7,2013-03-08 09:00:00,
2013-03-08 04:15:00,41.8,36.7,30.08,North,-999,0.0,0.0,82,0.00,,,-99.99,WeatherLink 5.7,2013-03-08 09:15:00,
2013-03-08 04:30:00,41.6,36.5,30.08,North,-999,0.0,0.0,82,0.00,,,-99.99,WeatherLink 5.7,2013-03-08 09:30:00,
2013-03-08 04:45:00,41.4,36.3,30.08,North,-999,0.0,0.0,82,0.00,,,-99.99,WeatherLink 5.7,2013-03-08 09:45:00,
2013-03-08 05:00:00,41.2,36.4,30.08,North,-999,0.0,0.0,83,0.00,,,-99.99,WeatherLink 5.7,2013-03-08 10:00:00,
2013-03-08 05:15:00,41.2,36.4,30.08,North,-999,0.0,0.0,83,0.00,,,-99.99,WeatherLink 5.7,2013-03-08 10:15:00,
2013-03-08 05:30:00,41.0,36.2,30.08,North,-999,0.0,0.0,83,0.00,,,-99.99,WeatherLink 5.7,2013-03-08 10:30:00,
2013-03-08 05:45:00,40.9,36.1,30.08,North,-999,0.0,0.0,83,0.00,,,-99.99,WeatherLink 5.7,2013-03-08 10:45:00,
2013-03-08 06:00:00,40.9,36.1,30.09,North,-999,0.0,0.0,83,0.00,,,-99.99,WeatherLink 5.7,2013-03-08 11:00:00,
2013-03-08 06:15:00,40.8,36.0,30.09,North,-999,0.0,0.0,83,0.00,,,-99.99,WeatherLink 5.7,2013-03-08 11:15:00,
2013-03-08 06:30:00,40.6,35.8,30.09,North,-999,0.0,0.0,83,0.00,,,-99.99,WeatherLink 5.7,2013-03-08 11:30:00,
2013-03-08 06:45:00,40.2,35.8,30.10,North,-999,0.0,0.0,84,0.00,,,-99.99,WeatherLink 5.7,2013-03-08 11:45:00,
2013-03-08 07:00:00,40.1,35.7,30.10,North,-999,0.0,0.0,84,0.00,,,-99.99,WeatherLink 5.7,2013-03-08 12:00:00,
2013-03-08 07:15:00,40.2,36.3,30.10,North,-999,0.0,0.0,86,0.00,,,-99.99,WeatherLink 5.7,2013-03-08 12:15:00,
2013-03-08 07:30:00,41.4,37.8,30.11,North,-999,0.0,0.0,87,0.00,,,-99.99,WeatherLink 5.7,2013-03-08 12:30:00,
2013-03-08 07:45:00,43.2,39.9,30.11,North,-999,0.0,0.0,88,0.00,,,-99.99,WeatherLink 5.7,2013-03-08 12:45:00,
2013-03-08 08:00:00,45.0,41.4,30.12,North,-999,0.0,0.0,87,0.00,,,-99.99,WeatherLink 5.7,2013-03-08 13:00:00,
2013-03-08 08:15:00,46.7,42.1,30.12,North,0,0.0,6.0,84,0.00,,,-99.99,WeatherLink 5.7,2013-03-08 13:15:00,
2013-03-08 08:30:00,49.0,42.8,30.13,North,0,0.0,5.0,79,0.01,,,-99.99,WeatherLink 5.7,2013-03-08 13:30:00,
2013-03-08 08:45:00,51.6,44.6,30.13,North,0,0.0,5.0,77,0.01,,,-99.99,WeatherLink 5.7,2013-03-08 13:45:00,
2013-03-08 09:00:00,54.1,44.9,30.13,North,0,0.0,5.0,71,0.01,,,-99.99,WeatherLink 5.7,2013-03-08 14:00:00,
2013-03-08 09:15:00,56.4,45.2,30.13,North,0,0.0,3.0,66,0.01,,,-99.99,WeatherLink 5.7,2013-03-08 14:15:00,
2013-03-08 09:30:00,58.3,46.2,30.13,North,0,1.0,6.0,64,0.00,,,-99.99,WeatherLink 5.7,2013-03-08 14:30:00,
2013-03-08 09:45:00,60.0,45.6,30.13,North,0,1.0,9.0,59,0.00,,,-99.99,WeatherLink 5.7,2013-03-08 14:45:00,
2013-03-08 10:00:00,61.5,45.7,30.13,North,0,1.0,7.0,56,0.00,,,-99.99,WeatherLink 5.7,2013-03-08 15:00:00,
2013-03-08 10:15:00,62.7,45.3,30.12,North,0,1.0,8.0,53,0.00,,,-99.99,WeatherLink 5.7,2013-03-08 15:15:00,
2013-03-08 10:30:00,64.1,44.5,30.13,North,0,1.0,8.0,49,0.00,,,-99.99,WeatherLink 5.7,2013-03-08 15:30:00,
2013-03-08 10:45:00,65.3,44.0,30.13,North,0,0.0,9.0,46,0.00,,,-99.99,WeatherLink 5.7,2013-03-08 15:45:00,
2013-03-08 11:00:00,66.2,43.0,30.13,North,0,1.0,9.0,43,0.00,,,-99.99,WeatherLink 5.7,2013-03-08 16:00:00,
2013-03-08 11:15:00,66.7,45.3,30.13,North,0,1.0,10.0,46,0.00,,,-99.99,WeatherLink 5.7,2013-03-08 16:15:00,
2013-03-08 11:30:00,66.9,44.3,30.12,North,0,0.0,4.0,44,0.00,,,-99.99,WeatherLink 5.7,2013-03-08 16:30:00,
2013-03-08 11:45:00,66.3,43.1,30.11,North,0,0.0,9.0,43,0.00,,,-99.99,WeatherLink 5.7,2013-03-08 16:45:00,
2013-03-08 12:00:00,65.8,42.7,30.11,North,0,0.0,4.0,43,0.00,,,-99.99,WeatherLink 5.7,2013-03-08 17:00:00,
2013-03-08 12:15:00,65.4,42.3,30.11,North,0,0.0,7.0,43,0.00,,,-99.99,WeatherLink 5.7,2013-03-08 17:15:00,
2013-03-08 12:30:00,65.4,42.3,30.10,North,0,3.0,10.0,43,0.00,,,-99.99,WeatherLink 5.7,2013-03-08 17:30:00,
2013-03-08 12:45:00,65.6,41.9,30.10,North,0,1.0,7.0,42,0.00,,,-99.99,WeatherLink 5.7,2013-03-08 17:45:00,
2013-03-08 13:00:00,65.5,41.8,30.09,North,0,4.0,12.0,42,0.00,,,-99.99,WeatherLink 5.7,2013-03-08 18:00:00,
2013-03-08 13:15:00,65.6,41.3,30.08,North,0,3.0,12.0,41,0.00,,,-99.99,WeatherLink 5.7,2013-03-08 18:15:00,
2013-03-08 13:30:00,65.4,41.1,30.08,North,0,3.0,12.0,41,0.00,,,-99.99,WeatherLink 5.7,2013-03-08 18:30:00,
2013-03-08 13:45:00,65.2,42.1,30.07,North,0,3.0,11.0,43,0.00,,,-99.99,WeatherLink 5.7,2013-03-08 18:45:00,
2013-03-08 14:00:00,65.2,42.1,30.07,North,0,2.0,10.0,43,0.00,,,-99.99,WeatherLink 5.7,2013-03-08 19:00:00,
2013-03-08 14:15:00,65.4,42.9,30.06,North,0,2.0,11.0,44,0.00,,,-99.99,WeatherLink 5.7,2013-03-08 19:15:00,
2013-03-08 14:30:00,65.6,42.5,30.05,North,0,2.0,10.0,43,0.00,,,-99.99,WeatherLink 5.7,2013-03-08 19:30:00,
2013-03-08 14:45:00,65.5,43.6,30.05,North,0,4.0,11.0,45,0.00,,,-99.99,WeatherLink 5.7,2013-03-08 19:45:00,
2013-03-08 15:00:00,65.3,43.4,30.05,North,0,2.0,11.0,45,0.00,,,-99.99,WeatherLink 5.7,2013-03-08 20:00:00,
2013-03-08 15:15:00,65.3,43.4,30.05,North,0,1.0,9.0,45,0.00,,,-99.99,WeatherLink 5.7,2013-03-08 20:15:00,
2013-03-08 15:30:00,64.9,44.2,30.04,North,0,3.0,11.0,47,0.00,,,-99.99,WeatherLink 5.7,2013-03-08 20:30:00,
2013-03-08 15:45:00,64.7,44.5,30.04,North,0,2.0,10.0,48,0.00,,,-99.99,WeatherLink 5.7,2013-03-08 20:45:00,
2013-03-08 16:00:00,64.5,44.4,30.05,North,0,4.0,10.0,48,0.00,,,-99.99,WeatherLink 5.7,2013-03-08 21:00:00,
2013-03-08 16:15:00,64.4,45.3,30.05,North,0,2.0,11.0,50,0.00,,,-99.99,WeatherLink 5.7,2013-03-08 21:15:00,
2013-03-08 16:30:00,63.9,44.4,30.05,North,0,1.0,7.0,49,0.00,,,-99.99,WeatherLink 5.7,2013-03-08 21:30:00,
2013-03-08 16:45:00,63.2,45.3,30.05,North,0,1.0,11.0,52,0.00,,,-99.99,WeatherLink 5.7,2013-03-08 21:45:00,
2013-03-08 17:00:00,62.7,45.3,30.05,North,0,3.0,11.0,53,0.00,,,-99.99,WeatherLink 5.7,2013-03-08 22:00:00,
2013-03-08 17:15:00,62.1,45.2,30.05,North,0,2.0,10.0,54,0.00,,,-99.99,WeatherLink 5.7,2013-03-08 22:15:00,
2013-03-08 17:30:00,61.7,45.4,30.06,North,0,1.0,7.0,55,0.00,,,-99.99,WeatherLink 5.7,2013-03-08 22:30:00,
2013-03-08 17:45:00,61.4,46.0,30.06,North,0,2.0,10.0,57,0.00,,,-99.99,WeatherLink 5.7,2013-03-08 22:45:00,
2013-03-08 18:00:00,61.0,45.7,30.06,North,0,1.0,7.0,57,0.00,,,-99.99,WeatherLink 5.7,2013-03-08 23:00:00,
2013-03-08 18:15:00,60.4,45.5,30.07,North,0,1.0,7.0,58,0.00,,,-99.99,WeatherLink 5.7,2013-03-08 23:15:00,
2013-03-08 18:30:00,59.9,45.5,30.07,North,0,0.0,5.0,59,0.00,,,-99.99,WeatherLink 5.7,2013-03-08 23:30:00,
2013-03-08 18:45:00,59.3,45.8,30.07,North,0,0.0,3.0,61,0.00,,,-99.99,WeatherLink 5.7,2013-03-08 23:45:00,
2013-03-08 19:00:00,58.8,46.2,30.07,North,-999,0.0,0.0,63,0.00,,,-99.99,WeatherLink 5.7,2013-03-09 00:00:00,
2013-03-08 19:15:00,58.3,45.3,30.07,North,-999,0.0,0.0,62,0.00,,,-99.99,WeatherLink 5.7,2013-03-09 00:15:00,
2013-03-08 19:30:00,57.7,45.6,30.07,North,-999,0.0,0.0,64,0.00,,,-99.99,WeatherLink 5.7,2013-03-09 00:30:00,
2013-03-08 19:45:00,57.1,45.0,30.08,North,-999,0.0,0.0,64,0.00,,,-99.99,WeatherLink 5.7,2013-03-09 00:45:00,
2013-03-08 20:00:00,56.3,44.3,30.08,North,-999,0.0,0.0,64,0.00,,,-99.99,WeatherLink 5.7,2013-03-09 01:00:00,
2013-03-08 20:15:00,55.5,43.9,30.07,North,-999,0.0,0.0,65,0.00,,,-99.99,WeatherLink 5.7,2013-03-09 01:15:00,
2013-03-08 20:30:00,54.7,43.2,30.08,North,-999,0.0,0.0,65,0.00,,,-99.99,WeatherLink 5.7,2013-03-09 01:30:00,
2013-03-08 20:45:00,54.0,42.9,30.08,North,-999,0.0,0.0,66,0.00,,,-99.99,WeatherLink 5.7,2013-03-09 01:45:00,
2013-03-08 21:00:00,53.2,43.3,30.09,North,-999,0.0,0.0,69,0.00,,,-99.99,WeatherLink 5.7,2013-03-09 02:00:00,
2013-03-08 21:15:00,52.5,42.2,30.09,North,-999,0.0,0.0,68,0.00,,,-99.99,WeatherLink 5.7,2013-03-09 02:15:00,
2013-03-08 21:30:00,51.8,42.3,30.08,North,-999,0.0,0.0,70,0.00,,,-99.99,WeatherLink 5.7,2013-03-09 02:30:00,
2013-03-08 21:45:00,51.1,41.7,30.09,North,-999,0.0,0.0,70,0.00,,,-99.99,WeatherLink 5.7,2013-03-09 02:45:00,
2013-03-08 22:00:00,50.6,41.5,30.08,North,-999,0.0,0.0,71,0.00,,,-99.99,WeatherLink 5.7,2013-03-09 03:00:00,
2013-03-08 22:15:00,50.2,41.2,30.09,North,-999,0.0,0.0,71,0.00,,,-99.99,WeatherLink 5.7,2013-03-09 03:15:00,
2013-03-08 22:30:00,50.0,42.4,30.10,North,-999,0.0,0.0,75,0.00,,,-99.99,WeatherLink 5.7,2013-03-09 03:30:00,
2013-03-08 22:45:00,50.5,43.9,30.10,North,-999,0.0,0.0,78,0.00,,,-99.99,WeatherLink 5.7,2013-03-09 03:45:00,
2013-03-08 23:00:00,51.5,44.9,30.10,North,-999,0.0,0.0,78,0.00,,,-99.99,WeatherLink 5.7,2013-03-09 04:00:00,
2013-03-08 23:15:00,52.1,45.4,30.10,North,-999,0.0,0.0,78,0.00,,,-99.99,WeatherLink 5.7,2013-03-09 04:15:00,
2013-03-08 23:30:00,52.3,45.3,30.09,North,-999,0.0,0.0,77,0.00,,,-99.99,WeatherLink 5.7,2013-03-09 04:30:00,
2013-03-08 23:45:00,52.2,45.5,30.08,North,-999,0.0,0.0,78,0.00,,,-99.99,WeatherLink 5.7,2013-03-09 04:45:00,